Guise (02) - Orange_Dame

Date : 04/09/2016

Place Nom Licence Catégorie Club Temps CN à J-60 Points Différence Nouveau CN
1 MERCIER Agnès 23079 D21 5907NO 0:28:28 5560 5227 -333 5645
2 MOULIERE M-Helene 2893 D40 0207PI 0:28:57 0 5140 4828
3 CORDEIRO MENDES Magalie 9869 D21 6008PI 0:29:28 5933 5050 -883 5861
4 BECU Cindy 5139 D35 6008PI 0:30:38 5645 4857 -788 5728
5 VERCAUTEREN M-Claude 16229 D45 6008PI 0:35:40 4663 4172 -491 4871
6 GUENIN Nathalie 16950 D45 5116CA 0:38:04 4096 3909 -187 4143
7 CORDEIRO MENDES Myriam 9235 D55 6008PI 0:38:35 3780 3856 +76 3834
8 GALLAIS Sophie 29498 D21 5116CA 0:39:53 3376 3731 +355 3565
9 BLUM Virginie 12646 D55 5116CA 0:42:18 4317 3518 -799 4245
10 FIRMIN Ludivine 27855 D21 6008PI 0:43:52 2186 3392 +1206 3697
11 BOUCHE Nathalie 31830 D50 5116CA 0:44:07 2593 3373 +780 3234
12 DELCUSE Patricia 29299 D40 6205NO 0:44:46 3018 3324 +306 3219
13 HAGARD Virginie 7048 D35 5907NO 0:45:24 3518 3277 -241 3298
14 PECQUEUR Sylvie 20425 D50 5906NO 0:47:34 3075 3128 +53 3179
15 SENCE Marie-Pierre 29897 D40 5906NO 0:50:10 2663 2966 +303 2978
16 FENEUIL Catherine 15585 D50 5101CA 0:50:37 3170 2940 -230 3177
17 BAUD Sandrine 27612 D40 6203NO 0:55:34 2793 2678 -115 2836
18 PETEL Corinne 31948 D35 0207PI 0:57:15 2178 2599 +421 2700
19 GILLET Annabelle 19601 D45 5116CA 0:57:19 3739 2596 -1143 3824
20 TORZ-DRUON Magali 10081 D60 5906NO 1:04:05 1928 2322 +394 2173
21 ROSE Marie-Thérèse 7744 D60 0801CA 1:09:19 2787 2147 -640 2787
22 CHOPIN Juliette 29940 D40 6203NO 1:18:01 781 1907 +1126 1188
23 LUDEWIG-JAMES Carol 15894 D75 5907NO 1:27:53 1460 1693 +233 1606